Time;durP1;ratioP1;P1;durP2;ratioP2;P2;SDS_P1;SDS_P2;PMS_P1;PMS_P2;Temp;Humidity;BMP_temperature;BMP_pressure;BME280_temperature;BME280_humidity;BME280_pressure;Samples;Min_cycle;Max_cycle;Signal;HPM_P1;HPM_P2
2022/03/08 00:01:48;;;;;;;;;;;-1.40;94.70;;;;;;5107462;28;19912;-80
2022/03/08 00:04:14;;;;;;;;;;;-1.50;95.00;;;;;;5090139;28;19908;-80
2022/03/08 00:06:40;;;;;;;;;;;-1.60;95.10;;;;;;5100046;28;19908;-79
2022/03/08 00:09:05;;;;;;;;;;;-1.70;95.50;;;;;;5098449;28;19908;-79
2022/03/08 00:11:31;;;;;;;;;;;0.90;95.80;;;;;;5098872;28;19919;-79
2022/03/08 00:13:56;;;;;;;;;;;-1.80;95.10;;;;;;5099313;28;19916;-80
2022/03/08 00:16:22;;;;;;;;;;;-1.90;95.00;;;;;;5098932;28;19908;-79
2022/03/08 00:18:49;;;;;;;;;;;-1.80;95.10;;;;;;5098769;28;19923;-80
2022/03/08 00:21:15;;;;;;;;;;;-1.90;94.60;;;;;;5079755;28;19912;-80
2022/03/08 00:23:40;;;;;;;;;;;-1.70;94.60;;;;;;5098197;28;20215;-79
2022/03/08 00:26:06;;;;;;;;;;;-1.90;94.70;;;;;;5097959;27;20391;-79
2022/03/08 00:28:32;;;;;;;;;;;-1.10;94.80;;;;;;5097913;28;19912;-79
2022/03/08 00:30:57;;;;;;;;;;;-1.00;94.70;;;;;;5098040;28;19908;-80
2022/03/08 00:33:23;;;;;;;;;;;-1.80;94.60;;;;;;5097715;28;20294;-79
2022/03/08 00:35:49;;;;;;;;;;;-1.80;93.90;;;;;;5079574;28;19915;-79
2022/03/08 00:38:15;;;;;;;;;;;-0.70;94.30;;;;;;5097585;28;19908;-79
2022/03/08 00:40:41;;;;;;;;;;;-0.70;94.20;;;;;;5098399;28;19915;-79
2022/03/08 00:43:06;;;;;;;;;;;-1.70;94.20;;;;;;5101559;28;20200;-79
2022/03/08 00:45:32;;;;;;;;;;;-1.80;94.30;;;;;;5101516;28;20135;-79
2022/03/08 00:47:57;;;;;;;;;;;-1.40;94.90;;;;;;5101910;28;20041;-78
2022/03/08 00:50:25;;;;;;;;;;;-1.80;94.50;;;;;;5083294;28;19951;-79
2022/03/08 00:52:51;;;;;;;;;;;-2.00;94.10;;;;;;5101112;28;19916;-79
2022/03/08 00:55:18;;;;;;;;;;;-1.90;94.50;;;;;;5101471;28;20357;-79
2022/03/08 00:57:44;;;;;;;;;;;-1.90;94.30;;;;;;5100962;28;19942;-77
2022/03/08 01:00:11;;;;;;;;;;;-0.40;94.30;;;;;;5101293;28;19908;-79
2022/03/08 01:02:37;;;;;;;;;;;-1.90;94.40;;;;;;5101300;28;19907;-79
2022/03/08 01:05:02;;;;;;;;;;;-1.90;94.30;;;;;;5101060;28;20120;-79
2022/03/08 01:07:28;;;;;;;;;;;-1.90;94.40;;;;;;5101216;28;19947;-79
2022/03/08 01:09:53;;;;;;;;;;;-1.90;94.80;;;;;;5100942;28;20370;-78
2022/03/08 01:12:19;;;;;;;;;;;-1.90;94.10;;;;;;5100700;28;20002;-79
2022/03/08 01:14:45;;;;;;;;;;;-0.40;94.50;;;;;;5083288;28;19908;-79
2022/03/08 01:17:10;;;;;;;;;;;-1.80;93.60;;;;;;5101818;28;19923;-79
2022/03/08 01:19:36;;;;;;;;;;;-1.80;93.60;;;;;;5101049;28;19918;-79
2022/03/08 01:22:01;;;;;;;;;;;-1.00;93.70;;;;;;5101005;28;20146;-79
2022/03/08 01:24:28;;;;;;;;;;;-1.80;93.50;;;;;;5082752;28;19907;-80
2022/03/08 01:26:54;;;;;;;;;;;-2.90;93.20;;;;;;5100571;28;19915;-79
2022/03/08 01:29:19;;;;;;;;;;;-1.80;93.80;;;;;;5100698;28;19961;-79
2022/03/08 01:31:45;;;;;;;;;;;-1.80;93.90;;;;;;5100909;28;19919;-79
2022/03/08 01:34:10;;;;;;;;;;;-1.80;93.60;;;;;;5100826;28;19932;-79
2022/03/08 01:36:37;;;;;;;;;;;-1.90;93.80;;;;;;5100566;28;19918;-79
2022/03/08 01:39:03;;;;;;;;;;;-1.90;94.00;;;;;;5101069;28;19961;-78
2022/03/08 01:41:29;;;;;;;;;;;-1.80;94.10;;;;;;5100934;28;19953;-79
2022/03/08 01:43:55;;;;;;;;;;;-1.80;94.00;;;;;;5100887;28;20153;-79
2022/03/08 01:46:20;;;;;;;;;;;-1.80;93.90;;;;;;5105954;28;19923;-79
2022/03/08 01:48:46;;;;;;;;;;;-0.90;93.80;;;;;;5108152;28;19958;-80
2022/03/08 01:51:13;;;;;;;;;;;-1.80;93.90;;;;;;5081465;28;20150;-79
2022/03/08 01:53:42;;;;;;;;;;;-1.80;93.60;;;;;;5082257;28;20344;-78
2022/03/08 01:56:08;;;;;;;;;;;-1.90;94.00;;;;;;5099330;28;19919;-79
2022/03/08 01:58:34;;;;;;;;;;;-1.90;93.90;;;;;;5099529;28;19908;-79
2022/03/08 02:00:59;;;;;;;;;;;-1.90;94.50;;;;;;5099453;28;20325;-79
2022/03/08 02:03:25;;;;;;;;;;;-2.00;94.50;;;;;;5099037;28;20208;-79
2022/03/08 02:05:51;;;;;;;;;;;-2.00;94.90;;;;;;5080437;28;19912;-79
2022/03/08 02:08:16;;;;;;;;;;;0.30;95.60;;;;;;5099101;28;19952;-78
2022/03/08 02:10:42;;;;;;;;;;;-1.80;95.30;;;;;;5098981;28;19977;-79
2022/03/08 02:13:07;;;;;;;;;;;-1.90;95.30;;;;;;5080231;28;20036;-80
2022/03/08 02:15:33;;;;;;;;;;;-1.90;95.20;;;;;;5099308;28;19934;-80
2022/03/08 02:17:59;;;;;;;;;;;-2.00;95.20;;;;;;5098920;28;19919;-79
2022/03/08 02:20:25;;;;;;;;;;;-2.00;95.50;;;;;;5099078;28;20438;-79
2022/03/08 02:22:51;;;;;;;;;;;-2.10;95.70;;;;;;5099285;28;20196;-79
2022/03/08 02:25:18;;;;;;;;;;;-1.30;95.60;;;;;;5106608;28;20013;-80
2022/03/08 02:27:45;;;;;;;;;;;-2.20;95.80;;;;;;5108138;28;19939;-79
2022/03/08 02:30:11;;;;;;;;;;;-2.30;96.10;;;;;;5090307;28;19915;-79
2022/03/08 02:32:37;;;;;;;;;;;-2.30;96.10;;;;;;5108751;28;19915;-80
2022/03/08 02:35:07;;;;;;;;;;;-2.40;96.50;;;;;;5109069;28;20132;-79
2022/03/08 02:37:36;;;;;;;;;;;-2.40;96.80;;;;;;5101246;28;19908;-79
2022/03/08 02:40:03;;;;;;;;;;;-2.30;97.00;;;;;;5080978;28;20135;-79
2022/03/08 02:42:28;;;;;;;;;;;-2.40;96.80;;;;;;5099551;28;19915;-79
2022/03/08 02:44:54;;;;;;;;;;;-2.40;97.10;;;;;;5098974;28;20450;-79
2022/03/08 02:47:19;;;;;;;;;;;-2.40;97.20;;;;;;5099486;28;19952;-79
2022/03/08 02:49:45;;;;;;;;;;;-1.10;98.10;;;;;;5099727;28;19939;-79
2022/03/08 02:52:10;;;;;;;;;;;-2.70;98.20;;;;;;5099681;28;19945;-79
2022/03/08 02:54:36;;;;;;;;;;;-2.70;98.70;;;;;;5099354;28;19938;-79
2022/03/08 02:57:02;;;;;;;;;;;-2.20;99.00;;;;;;5099031;28;19915;-79
2022/03/08 02:59:27;;;;;;;;;;;-2.70;98.80;;;;;;5099826;28;19933;-79
2022/03/08 03:01:53;;;;;;;;;;;-2.70;99.30;;;;;;5099830;28;19916;-79
2022/03/08 03:04:18;;;;;;;;;;;-2.80;99.60;;;;;;5099836;28;19969;-79
2022/03/08 03:06:44;;;;;;;;;;;-1.30;99.90;;;;;;5100349;28;19908;-78
2022/03/08 03:09:09;;;;;;;;;;;-1.40;99.90;;;;;;5099093;28;19908;-79
2022/03/08 03:11:35;;;;;;;;;;;-2.80;99.70;;;;;;5098427;28;20362;-79
2022/03/08 03:14:01;;;;;;;;;;;-2.90;99.90;;;;;;5104585;28;20073;-79
2022/03/08 03:16:26;;;;;;;;;;;-1.50;99.90;;;;;;5098907;28;20093;-79
2022/03/08 03:18:52;;;;;;;;;;;-2.90;99.90;;;;;;5100253;28;19990;-79
2022/03/08 03:21:17;;;;;;;;;;;-3.00;99.90;;;;;;5106287;28;19917;-79
2022/03/08 03:23:46;;;;;;;;;;;-2.60;99.90;;;;;;5100384;28;20484;-79
2022/03/08 03:26:11;;;;;;;;;;;-2.90;99.90;;;;;;5101189;28;19935;-79
2022/03/08 03:28:37;;;;;;;;;;;-2.90;99.90;;;;;;5101375;28;19908;-80
2022/03/08 03:31:03;;;;;;;;;;;-3.00;99.90;;;;;;5100628;28;19922;-79
2022/03/08 03:33:28;;;;;;;;;;;-3.00;99.90;;;;;;5100430;28;20450;-78
2022/03/08 03:35:54;;;;;;;;;;;-2.90;99.90;;;;;;5101063;28;19914;-79
2022/03/08 03:38:20;;;;;;;;;;;-2.50;99.90;;;;;;5100927;28;19947;-79
2022/03/08 03:40:45;;;;;;;;;;;-1.90;99.90;;;;;;5099785;28;20375;-79
2022/03/08 03:43:11;;;;;;;;;;;-2.90;99.90;;;;;;5099298;28;19922;-79
2022/03/08 03:45:37;;;;;;;;;;;-2.90;99.90;;;;;;5081347;28;19927;-79
2022/03/08 03:48:02;;;;;;;;;;;-3.00;99.90;;;;;;5100180;28;20324;-80
2022/03/08 03:50:28;;;;;;;;;;;-2.90;99.90;;;;;;5099825;28;19977;-80
2022/03/08 03:52:54;;;;;;;;;;;-3.00;99.90;;;;;;5099659;28;19916;-79
2022/03/08 03:55:19;;;;;;;;;;;-2.90;99.90;;;;;;5110186;28;20173;-79
2022/03/08 03:57:45;;;;;;;;;;;-2.80;99.90;;;;;;5118341;28;19961;-79
2022/03/08 04:00:12;;;;;;;;;;;-2.80;99.90;;;;;;5100979;28;19915;-79
2022/03/08 04:02:37;;;;;;;;;;;-2.90;99.90;;;;;;5083081;28;20211;-79
2022/03/08 04:05:03;;;;;;;;;;;-2.40;99.90;;;;;;5101960;28;19908;-79
2022/03/08 04:07:29;;;;;;;;;;;-3.00;99.90;;;;;;5107021;28;19961;-79
2022/03/08 04:09:54;;;;;;;;;;;-3.00;99.90;;;;;;5100209;28;20477;-79
2022/03/08 04:12:20;;;;;;;;;;;-3.00;99.90;;;;;;5100232;28;20290;-78
2022/03/08 04:14:45;;;;;;;;;;;-2.90;99.90;;;;;;5099436;28;19919;-79
2022/03/08 04:17:11;;;;;;;;;;;-1.50;99.90;;;;;;5102322;28;20125;-79
2022/03/08 04:19:36;;;;;;;;;;;-2.90;99.90;;;;;;5103385;28;19923;-79
2022/03/08 04:22:02;;;;;;;;;;;-2.90;99.90;;;;;;5102713;28;19908;-79
2022/03/08 04:24:28;;;;;;;;;;;-2.90;99.90;;;;;;5102287;28;20322;-79
2022/03/08 04:26:53;;;;;;;;;;;-2.90;99.90;;;;;;5102751;28;20596;-79
2022/03/08 04:29:19;;;;;;;;;;;-2.90;99.90;;;;;;5103143;28;20366;-80
2022/03/08 04:31:44;;;;;;;;;;;-2.70;99.90;;;;;;5103358;28;20442;-79
2022/03/08 04:34:10;;;;;;;;;;;-2.90;99.90;;;;;;5104518;28;19971;-80
2022/03/08 04:36:35;;;;;;;;;;;-2.90;99.90;;;;;;5083837;28;19914;-80
2022/03/08 04:39:01;;;;;;;;;;;-2.80;99.90;;;;;;5102496;28;20266;-79
2022/03/08 04:41:26;;;;;;;;;;;-2.00;99.90;;;;;;5084156;28;19939;-78
2022/03/08 04:43:52;;;;;;;;;;;-2.60;99.90;;;;;;5102776;28;19908;-79
2022/03/08 04:46:17;;;;;;;;;;;-0.70;99.90;;;;;;5105281;28;19920;-79
2022/03/08 04:48:43;;;;;;;;;;;-2.10;99.90;;;;;;5104796;28;20215;-79
2022/03/08 04:51:09;;;;;;;;;;;-2.70;99.90;;;;;;5104844;28;19908;-79
2022/03/08 04:53:43;;;;;;;;;;;-2.80;99.90;;;;;;5087251;28;19907;-79
2022/03/08 04:56:09;;;;;;;;;;;-2.90;99.90;;;;;;5088138;28;20166;-79
2022/03/08 04:58:35;;;;;;;;;;;-2.70;99.90;;;;;;5102099;28;19911;-79
2022/03/08 05:01:00;;;;;;;;;;;-2.80;99.90;;;;;;5102521;28;19915;-79
2022/03/08 05:03:26;;;;;;;;;;;-2.80;99.90;;;;;;5083179;28;19908;-79
2022/03/08 05:05:51;;;;;;;;;;;-2.50;99.90;;;;;;5102324;28;19912;-79
2022/03/08 05:08:17;;;;;;;;;;;-2.80;99.90;;;;;;5101799;28;20588;-80
2022/03/08 05:10:44;;;;;;;;;;;-2.80;99.90;;;;;;5083211;28;19919;-79
2022/03/08 05:13:09;;;;;;;;;;;-2.70;99.90;;;;;;5101999;28;20224;-79
2022/03/08 05:15:36;;;;;;;;;;;-2.70;99.90;;;;;;5101252;28;20381;-79
2022/03/08 05:18:01;;;;;;;;;;;-4.00;99.90;;;;;;5102003;28;19958;-79
2022/03/08 05:20:27;;;;;;;;;;;-2.70;99.90;;;;;;5101365;28;19943;-79
2022/03/08 05:22:52;;;;;;;;;;;-2.10;99.90;;;;;;5101671;28;19921;-79
2022/03/08 05:25:18;;;;;;;;;;;-2.70;99.10;;;;;;5101003;28;19908;-79
2022/03/08 05:27:44;;;;;;;;;;;-2.70;99.20;;;;;;5082520;28;20002;-79
2022/03/08 05:30:09;;;;;;;;;;;-2.70;99.20;;;;;;5101368;28;19951;-79
2022/03/08 05:32:35;;;;;;;;;;;-2.70;99.20;;;;;;5101006;28;20354;-79
2022/03/08 05:35:01;;;;;;;;;;;-2.70;99.20;;;;;;5101937;28;20023;-79
2022/03/08 05:37:26;;;;;;;;;;;-2.70;99.30;;;;;;5100635;28;19907;-79
2022/03/08 05:39:52;;;;;;;;;;;-3.20;99.20;;;;;;5101416;28;19984;-78
2022/03/08 05:42:18;;;;;;;;;;;-2.60;99.30;;;;;;5101581;28;20413;-79
2022/03/08 05:44:43;;;;;;;;;;;-2.60;98.80;;;;;;5082914;28;20108;-78
2022/03/08 05:47:09;;;;;;;;;;;-0.10;99.60;;;;;;5104093;28;20332;-79
2022/03/08 05:49:34;;;;;;;;;;;-2.60;98.80;;;;;;5108319;28;19907;-80
2022/03/08 05:52:00;;;;;;;;;;;-2.60;98.80;;;;;;5103413;28;20049;-79
2022/03/08 05:54:25;;;;;;;;;;;-2.60;98.90;;;;;;5084408;28;19985;-79
2022/03/08 05:56:51;;;;;;;;;;;-2.50;99.00;;;;;;5101967;28;19950;-79
2022/03/08 05:59:17;;;;;;;;;;;-2.40;98.70;;;;;;5102774;28;19934;-79
2022/03/08 06:01:42;;;;;;;;;;;-2.60;98.20;;;;;;5103171;28;20565;-78
2022/03/08 06:04:08;;;;;;;;;;;-2.70;98.40;;;;;;5103864;28;20526;-79
2022/03/08 06:06:33;;;;;;;;;;;-2.50;98.50;;;;;;5103348;28;19908;-79
2022/03/08 06:08:59;;;;;;;;;;;-2.60;98.20;;;;;;5083981;28;20469;-79
2022/03/08 06:11:24;;;;;;;;;;;-1.80;98.80;;;;;;5103600;28;19918;-79
2022/03/08 06:13:50;;;;;;;;;;;-2.60;98.60;;;;;;5103661;28;19907;-79
2022/03/08 06:16:16;;;;;;;;;;;-2.60;98.60;;;;;;5102529;28;20301;-79
2022/03/08 06:18:41;;;;;;;;;;;-2.60;98.60;;;;;;5103311;28;19987;-79
2022/03/08 06:21:07;;;;;;;;;;;-2.60;98.60;;;;;;5104032;28;19960;-79
2022/03/08 06:23:33;;;;;;;;;;;-2.60;98.60;;;;;;5101864;28;19954;-79
2022/03/08 06:25:59;;;;;;;;;;;-2.50;99.00;;;;;;5057743;28;19913;-79
2022/03/08 06:28:24;;;;;;;;;;;-2.50;98.70;;;;;;5042282;28;20491;-80
2022/03/08 06:30:50;;;;;;;;;;;-2.40;98.40;;;;;;5064700;28;19909;-79
2022/03/08 06:33:17;;;;;;;;;;;-1.50;99.00;;;;;;5058285;28;20308;-79
2022/03/08 06:35:43;;;;;;;;;;;-2.50;98.40;;;;;;5040045;28;20326;-79
2022/03/08 06:38:08;;;;;;;;;;;-2.40;98.70;;;;;;5038973;28;20390;-79
2022/03/08 06:40:34;;;;;;;;;;;-2.30;98.80;;;;;;5056301;28;19952;-79
2022/03/08 06:43:00;;;;;;;;;;;-1.00;98.80;;;;;;5023155;28;19912;-79
2022/03/08 06:45:25;;;;;;;;;;;-2.20;98.30;;;;;;5056980;28;19985;-79
2022/03/08 06:47:51;;;;;;;;;;;-2.10;98.00;;;;;;5056387;28;19990;-79
2022/03/08 06:50:16;;;;;;;;;;;-2.00;97.80;;;;;;5056271;28;20179;-80
2022/03/08 06:52:42;;;;;;;;;;;-2.00;97.80;;;;;;5055860;28;20369;-79
2022/03/08 06:55:08;;;;;;;;;;;-1.90;97.80;;;;;;5055942;28;19912;-79
2022/03/08 06:57:34;;;;;;;;;;;-1.80;97.00;;;;;;5069847;28;20384;-79
2022/03/08 06:59:59;;;;;;;;;;;-1.80;96.70;;;;;;5100403;28;20350;-79
2022/03/08 07:02:26;;;;;;;;;;;-1.70;96.90;;;;;;5099818;28;19961;-79
2022/03/08 07:04:51;;;;;;;;;;;-1.50;96.90;;;;;;5081314;28;19922;-79
2022/03/08 07:07:17;;;;;;;;;;;-1.50;95.80;;;;;;5081254;28;20206;-79
2022/03/08 07:09:42;;;;;;;;;;;-0.50;95.50;;;;;;5099884;28;19980;-79
2022/03/08 07:12:08;;;;;;;;;;;-1.30;94.70;;;;;;5099481;28;20370;-79
2022/03/08 07:14:34;;;;;;;;;;;-1.20;94.60;;;;;;5080785;28;20391;-79
2022/03/08 07:17:00;;;;;;;;;;;-1.00;93.80;;;;;;5098932;28;19995;-79
2022/03/08 07:19:25;;;;;;;;;;;-0.90;93.50;;;;;;5099484;28;20420;-79
2022/03/08 07:21:51;;;;;;;;;;;1.30;93.40;;;;;;5099336;28;20583;-79
2022/03/08 07:24:17;;;;;;;;;;;-0.70;92.50;;;;;;5102696;28;20433;-79
2022/03/08 07:26:42;;;;;;;;;;;-0.60;92.10;;;;;;5105727;28;20182;-79
2022/03/08 07:29:08;;;;;;;;;;;-0.40;92.00;;;;;;5098915;28;19916;-79
2022/03/08 07:31:34;;;;;;;;;;;-0.20;91.60;;;;;;5098159;28;19916;-79
2022/03/08 07:33:59;;;;;;;;;;;-0.10;91.70;;;;;;5098404;28;20196;-78
2022/03/08 07:36:25;;;;;;;;;;;0.10;91.30;;;;;;5098295;28;19998;-79
2022/03/08 07:38:51;;;;;;;;;;;0.30;91.10;;;;;;5098573;28;19919;-79
2022/03/08 07:41:16;;;;;;;;;;;0.30;90.10;;;;;;5098710;28;19907;-79
2022/03/08 07:43:42;;;;;;;;;;;0.30;91.00;;;;;;5098712;28;19911;-79
2022/03/08 07:46:09;;;;;;;;;;;0.30;91.40;;;;;;5099026;28;20005;-79
2022/03/08 07:48:35;;;;;;;;;;;0.30;91.40;;;;;;5098471;28;19995;-79
2022/03/08 07:51:00;;;;;;;;;;;-0.70;90.90;;;;;;5101639;28;19919;-78
2022/03/08 07:53:26;;;;;;;;;;;0.20;90.30;;;;;;5102681;28;20281;-79
2022/03/08 07:55:52;;;;;;;;;;;0.10;88.40;;;;;;5102182;28;19911;-79
2022/03/08 07:58:17;;;;;;;;;;;0.00;90.20;;;;;;5101935;28;20405;-79
2022/03/08 08:00:43;;;;;;;;;;;-0.10;90.00;;;;;;5083865;28;19908;-79
2022/03/08 08:03:09;;;;;;;;;;;0.20;90.30;;;;;;5101985;28;19916;-79
2022/03/08 08:05:35;;;;;;;;;;;0.30;88.20;;;;;;5103069;28;19908;-78
2022/03/08 08:08:02;;;;;;;;;;;0.30;86.10;;;;;;5102162;28;20441;-79
2022/03/08 08:10:27;;;;;;;;;;;0.90;85.00;;;;;;5102828;28;20542;-78
2022/03/08 08:12:53;;;;;;;;;;;0.70;81.60;;;;;;5084346;28;19922;-78
2022/03/08 08:15:18;;;;;;;;;;;0.80;82.80;;;;;;5101929;28;19915;-79
2022/03/08 08:17:44;;;;;;;;;;;0.70;82.00;;;;;;5102227;28;19911;-79
2022/03/08 08:20:10;;;;;;;;;;;0.50;81.90;;;;;;5101632;28;20317;-79
2022/03/08 08:22:35;;;;;;;;;;;0.40;82.70;;;;;;5101658;28;19908;-79
2022/03/08 08:25:01;;;;;;;;;;;0.90;86.30;;;;;;5101511;28;20483;-78
2022/03/08 08:27:26;;;;;;;;;;;-0.10;89.60;;;;;;5101322;28;20316;-78
2022/03/08 08:29:52;;;;;;;;;;;-0.30;90.60;;;;;;5102173;28;20191;-78
2022/03/08 08:32:18;;;;;;;;;;;-0.20;91.10;;;;;;5101885;28;19915;-78
2022/03/08 08:34:43;;;;;;;;;;;-0.30;91.50;;;;;;5083373;28;19908;-78
2022/03/08 08:37:09;;;;;;;;;;;-0.20;91.30;;;;;;5105077;28;20044;-79
2022/03/08 08:39:35;;;;;;;;;;;-0.10;91.60;;;;;;5108052;28;19918;-78
2022/03/08 08:42:01;;;;;;;;;;;0.00;91.00;;;;;;5107616;28;19907;-78
2022/03/08 08:44:26;;;;;;;;;;;-0.10;91.30;;;;;;5108847;28;19913;-78
2022/03/08 08:46:52;;;;;;;;;;;0.10;91.10;;;;;;5106515;28;19920;-78
2022/03/08 08:49:18;;;;;;;;;;;0.30;90.70;;;;;;5102327;28;20387;-78
2022/03/08 08:51:43;;;;;;;;;;;0.20;90.50;;;;;;5101360;28;20397;-79
2022/03/08 08:54:09;;;;;;;;;;;0.60;90.00;;;;;;5101120;28;19907;-78
2022/03/08 08:56:36;;;;;;;;;;;0.60;87.40;;;;;;5101374;28;19962;-78
2022/03/08 08:59:03;;;;;;;;;;;0.80;87.70;;;;;;5083005;28;20194;-79
2022/03/08 09:01:29;;;;;;;;;;;0.90;88.40;;;;;;5081854;28;19968;-78
2022/03/08 09:03:54;;;;;;;;;;;0.80;85.70;;;;;;5101217;28;19999;-77
2022/03/08 09:06:20;;;;;;;;;;;1.00;86.50;;;;;;5100767;28;19907;-78
2022/03/08 09:08:46;;;;;;;;;;;1.10;85.90;;;;;;5100681;28;19912;-78
2022/03/08 09:11:13;;;;;;;;;;;1.00;84.90;;;;;;5100446;28;20317;-78
2022/03/08 09:13:40;;;;;;;;;;;1.30;84.50;;;;;;5082232;28;19919;-78
2022/03/08 09:16:05;;;;;;;;;;;3.50;81.40;;;;;;5101384;28;19908;-78
2022/03/08 09:18:31;;;;;;;;;;;1.80;81.20;;;;;;5083022;28;19937;-78
2022/03/08 09:20:56;;;;;;;;;;;1.90;82.70;;;;;;5101344;28;20428;-78
2022/03/08 09:23:22;;;;;;;;;;;2.10;81.40;;;;;;5101235;28;19918;-78
2022/03/08 09:25:48;;;;;;;;;;;2.50;78.90;;;;;;5082456;28;19986;-78
2022/03/08 09:28:13;;;;;;;;;;;2.60;71.60;;;;;;5100830;28;19968;-78
2022/03/08 09:30:39;;;;;;;;;;;3.20;75.30;;;;;;5082965;28;19908;-79
2022/03/08 09:33:05;;;;;;;;;;;2.90;73.90;;;;;;5101326;28;20302;-78
2022/03/08 09:35:31;;;;;;;;;;;3.20;72.80;;;;;;5100761;28;20290;-78
2022/03/08 09:37:56;;;;;;;;;;;3.30;69.40;;;;;;5081926;28;20234;-79
2022/03/08 09:40:23;;;;;;;;;;;3.40;70.10;;;;;;5101203;28;19908;-78
2022/03/08 09:42:48;;;;;;;;;;;3.60;68.20;;;;;;5100379;28;20492;-78
2022/03/08 09:45:15;;;;;;;;;;;3.60;67.80;;;;;;5082638;28;20050;-78
2022/03/08 09:47:40;;;;;;;;;;;3.30;65.30;;;;;;5102164;28;19967;-78
2022/03/08 09:50:06;;;;;;;;;;;3.30;70.30;;;;;;5101777;28;19912;-78
2022/03/08 09:52:34;;;;;;;;;;;3.20;66.60;;;;;;5083523;28;19950;-79
2022/03/08 09:54:59;;;;;;;;;;;3.20;68.20;;;;;;5107897;28;19936;-78
2022/03/08 09:57:25;;;;;;;;;;;3.20;68.30;;;;;;5103228;28;20029;-78
2022/03/08 09:59:51;;;;;;;;;;;3.40;70.10;;;;;;5082376;28;20195;-79
2022/03/08 10:02:17;;;;;;;;;;;3.40;67.90;;;;;;5100721;28;19915;-79
2022/03/08 10:04:42;;;;;;;;;;;3.50;69.20;;;;;;5081193;28;20456;-79
2022/03/08 10:07:10;;;;;;;;;;;3.70;70.00;;;;;;5081107;28;20111;-78
2022/03/08 10:09:36;;;;;;;;;;;3.90;66.20;;;;;;5099566;28;20325;-78
2022/03/08 10:12:12;;;;;;;;;;;3.90;68.40;;;;;;5099299;28;19981;-78
2022/03/08 10:14:39;;;;;;;;;;;4.00;70.70;;;;;;5099302;28;19907;-78
2022/03/08 10:17:30;;;;;;;;;;;4.40;65.10;;;;;;5080893;28;19918;-78
2022/03/08 10:19:56;;;;;;;;;;;4.60;62.70;;;;;;5099163;28;19908;-78
2022/03/08 10:22:28;;;;;;;;;;;4.60;59.80;;;;;;5099563;28;19961;-78
2022/03/08 10:25:15;;;;;;;;;;;4.40;60.30;;;;;;5081063;28;19912;-78
2022/03/08 10:27:41;;;;;;;;;;;4.40;64.10;;;;;;5100501;28;19939;-78
2022/03/08 10:30:12;;;;;;;;;;;4.30;64.20;;;;;;5100960;28;19985;-78
2022/03/08 10:32:38;;;;;;;;;;;4.40;64.40;;;;;;5099814;28;19920;-79
2022/03/08 10:35:04;;;;;;;;;;;4.70;64.30;;;;;;5099762;28;19947;-78
2022/03/08 10:37:37;;;;;;;;;;;4.60;61.80;;;;;;5098524;28;20014;-78
2022/03/08 10:40:05;;;;;;;;;;;4.70;63.20;;;;;;5099596;28;19908;-78
2022/03/08 10:42:32;;;;;;;;;;;4.60;63.30;;;;;;5081754;28;20011;-78
2022/03/08 10:45:05;;;;;;;;;;;4.50;64.20;;;;;;5099625;28;20131;-78
2022/03/08 10:47:44;;;;;;;;;;;4.20;62.40;;;;;;5081141;28;19958;-78
2022/03/08 10:50:11;;;;;;;;;;;4.00;63.00;;;;;;5099878;28;19914;-78
2022/03/08 10:52:38;;;;;;;;;;;3.90;62.80;;;;;;5080894;28;19976;-78
2022/03/08 10:55:09;;;;;;;;;;;4.50;61.90;;;;;;5099582;28;20016;-78
2022/03/08 10:57:35;;;;;;;;;;;3.90;62.80;;;;;;5099552;28;19919;-78
2022/03/08 11:00:01;;;;;;;;;;;4.00;60.80;;;;;;5080780;28;20200;-78
2022/03/08 11:02:26;;;;;;;;;;;4.30;60.70;;;;;;5099240;28;19935;-78
2022/03/08 11:05:09;;;;;;;;;;;4.40;60.20;;;;;;5099879;28;19943;-78
2022/03/08 11:07:38;;;;;;;;;;;4.40;58.70;;;;;;5081333;28;19934;-77
2022/03/08 11:10:04;;;;;;;;;;;4.20;59.40;;;;;;5080895;28;19998;-78
2022/03/08 11:12:30;;;;;;;;;;;4.20;59.80;;;;;;5099668;28;19920;-78
2022/03/08 11:14:56;;;;;;;;;;;4.30;60.30;;;;;;5099231;28;20085;-77
2022/03/08 11:17:23;;;;;;;;;;;4.50;61.70;;;;;;5099088;28;19911;-78
2022/03/08 11:19:49;;;;;;;;;;;4.80;57.90;;;;;;5100022;28;19908;-78
2022/03/08 11:22:16;;;;;;;;;;;5.20;54.20;;;;;;5080304;28;19908;-78
2022/03/08 11:24:42;;;;;;;;;;;5.30;54.80;;;;;;5079243;28;20223;-77
2022/03/08 11:27:08;;;;;;;;;;;5.40;53.60;;;;;;5081485;28;20573;-78
2022/03/08 11:29:34;;;;;;;;;;;5.20;54.80;;;;;;5099323;28;19911;-77
2022/03/08 11:32:01;;;;;;;;;;;5.10;54.10;;;;;;5100729;28;20472;-78
2022/03/08 11:34:36;;;;;;;;;;;4.80;56.50;;;;;;5100474;28;20394;-78
2022/03/08 11:37:03;;;;;;;;;;;4.50;57.80;;;;;;5099786;28;20310;-77
2022/03/08 11:39:30;;;;;;;;;;;4.00;56.70;;;;;;5098782;28;19912;-78
2022/03/08 11:41:57;;;;;;;;;;;3.60;58.30;;;;;;5098847;28;20218;-77
2022/03/08 11:44:32;;;;;;;;;;;3.40;62.70;;;;;;5098768;28;19988;-77
2022/03/08 11:47:03;;;;;;;;;;;3.20;62.80;;;;;;5098266;28;19994;-78
2022/03/08 11:49:43;;;;;;;;;;;3.10;64.60;;;;;;5097306;28;19912;-78
2022/03/08 11:52:10;;;;;;;;;;;2.80;67.10;;;;;;5097840;28;20305;-78
2022/03/08 11:54:36;;;;;;;;;;;2.80;69.10;;;;;;5079134;28;20563;-78
2022/03/08 11:57:01;;;;;;;;;;;2.70;68.80;;;;;;5097849;28;19982;-78
2022/03/08 11:59:27;;;;;;;;;;;2.90;70.40;;;;;;5098931;28;19915;-78
2022/03/08 12:01:56;;;;;;;;;;;3.30;70.00;;;;;;5098076;28;20401;-78
2022/03/08 12:04:21;;;;;;;;;;;3.60;67.50;;;;;;5098541;28;20128;-78
2022/03/08 12:06:49;;;;;;;;;;;3.80;64.10;;;;;;5098053;28;20213;-78
2022/03/08 12:09:18;;;;;;;;;;;4.10;65.70;;;;;;5098811;28;19908;-78
2022/03/08 12:11:47;;;;;;;;;;;4.30;64.40;;;;;;5098242;28;20196;-78
2022/03/08 12:14:13;;;;;;;;;;;4.40;59.50;;;;;;5098522;28;20407;-78
2022/03/08 12:16:40;;;;;;;;;;;4.30;62.40;;;;;;5098179;28;20213;-77
2022/03/08 12:19:09;;;;;;;;;;;4.10;63.70;;;;;;5079654;28;19947;-78
2022/03/08 12:21:39;;;;;;;;;;;3.80;68.00;;;;;;5098536;28;19911;-78
2022/03/08 12:24:29;;;;;;;;;;;3.60;70.50;;;;;;5098171;28;19958;-78
2022/03/08 12:26:56;;;;;;;;;;;3.30;70.10;;;;;;5093603;28;19965;-77
2022/03/08 12:29:36;;;;;;;;;;;3.80;72.60;;;;;;5097292;28;19973;-79
2022/03/08 12:32:04;;;;;;;;;;;3.30;70.30;;;;;;5097219;28;19927;-78
2022/03/08 12:34:40;;;;;;;;;;;3.20;73.10;;;;;;5079125;28;19907;-77
2022/03/08 12:37:14;;;;;;;;;;;3.10;76.80;;;;;;5080353;28;20030;-77
2022/03/08 12:39:43;;;;;;;;;;;3.10;77.90;;;;;;5101280;28;19981;-77
2022/03/08 12:42:19;;;;;;;;;;;3.60;79.80;;;;;;5101355;28;19908;-77
2022/03/08 12:45:05;;;;;;;;;;;4.20;78.80;;;;;;5082464;28;19915;-78
2022/03/08 12:47:33;;;;;;;;;;;4.50;78.00;;;;;;5082830;28;19908;-78
2022/03/08 12:50:00;;;;;;;;;;;4.60;72.20;;;;;;5101151;28;20558;-78
2022/03/08 12:52:27;;;;;;;;;;;4.50;71.60;;;;;;5082602;28;19924;-77
2022/03/08 12:54:55;;;;;;;;;;;4.30;76.20;;;;;;5101346;28;19911;-78
2022/03/08 12:57:21;;;;;;;;;;;4.00;75.00;;;;;;5101967;28;19915;-78
2022/03/08 12:59:49;;;;;;;;;;;3.90;77.60;;;;;;5102526;28;19919;-78
2022/03/08 13:02:15;;;;;;;;;;;3.80;76.60;;;;;;5102540;28;20447;-78
2022/03/08 13:04:42;;;;;;;;;;;3.70;77.10;;;;;;5101612;28;19908;-78
2022/03/08 13:07:09;;;;;;;;;;;3.70;76.30;;;;;;5083710;28;20250;-78
2022/03/08 13:09:47;;;;;;;;;;;3.80;69.50;;;;;;5102583;28;19916;-77
2022/03/08 13:12:19;;;;;;;;;;;3.90;68.30;;;;;;5102687;28;19924;-78
2022/03/08 13:15:04;;;;;;;;;;;3.80;66.10;;;;;;5102505;28;19911;-77
2022/03/08 13:17:29;;;;;;;;;;;4.20;67.60;;;;;;5102417;28;19977;-78
2022/03/08 13:19:55;;;;;;;;;;;4.60;65.00;;;;;;5102813;28;20003;-79
2022/03/08 13:22:21;;;;;;;;;;;5.10;62.30;;;;;;5102479;28;19908;-78
2022/03/08 13:25:06;;;;;;;;;;;5.30;59.80;;;;;;5105702;28;19907;-78
2022/03/08 13:27:47;;;;;;;;;;;5.50;57.10;;;;;;5107371;28;20203;-78
2022/03/08 13:30:19;;;;;;;;;;;5.80;58.40;;;;;;5103046;28;19923;-78
2022/03/08 13:32:45;;;;;;;;;;;6.30;56.60;;;;;;5102920;28;20266;-78
2022/03/08 13:35:11;;;;;;;;;;;6.70;52.80;;;;;;5084159;28;19980;-78
2022/03/08 13:37:47;;;;;;;;;;;6.80;51.80;;;;;;5101512;28;19907;-78
2022/03/08 13:40:29;;;;;;;;;;;5.50;51.20;;;;;;5102270;28;20154;-78
2022/03/08 13:42:57;;;;;;;;;;;5.50;53.70;;;;;;5103106;28;19908;-78
2022/03/08 13:45:24;;;;;;;;;;;4.90;54.50;;;;;;5088772;28;19973;-79
2022/03/08 13:47:55;;;;;;;;;;;4.60;55.80;;;;;;5108378;28;19908;-78
2022/03/08 13:50:24;;;;;;;;;;;4.20;58.70;;;;;;5107925;28;19915;-78
2022/03/08 13:52:53;;;;;;;;;;;4.10;61.40;;;;;;5107806;28;19923;-78
2022/03/08 13:55:19;;;;;;;;;;;4.00;62.70;;;;;;5102090;28;19947;-78
2022/03/08 13:57:58;;;;;;;;;;;3.90;61.40;;;;;;5082578;28;19911;-78
2022/03/08 14:00:30;;;;;;;;;;;3.90;61.00;;;;;;5100918;28;20218;-78
2022/03/08 14:02:56;;;;;;;;;;;5.20;62.60;;;;;;5080853;28;19907;-78
2022/03/08 14:05:22;;;;;;;;;;;4.10;62.40;;;;;;5100491;28;19911;-78
2022/03/08 14:07:58;;;;;;;;;;;4.10;63.30;;;;;;5100216;28;19966;-78
2022/03/08 14:10:24;;;;;;;;;;;4.10;61.20;;;;;;5081467;28;20497;-78
2022/03/08 14:12:50;;;;;;;;;;;4.10;62.40;;;;;;5099989;28;19987;-78
2022/03/08 14:15:20;;;;;;;;;;;4.20;61.50;;;;;;5081722;28;19935;-79
2022/03/08 14:17:46;;;;;;;;;;;4.40;60.70;;;;;;5100165;28;20361;-79
2022/03/08 14:20:19;;;;;;;;;;;4.50;61.70;;;;;;5100751;28;19912;-79
2022/03/08 14:23:01;;;;;;;;;;;4.70;58.40;;;;;;5083050;28;19935;-78